Time;durP1;ratioP1;P1;durP2;ratioP2;P2;SDS_P1;SDS_P2;PMS_P1;PMS_P2;Temp;Humidity;BMP_temperature;BMP_pressure;BME280_temperature;BME280_humidity;BME280_pressure;Samples;Min_cycle;Max_cycle;Signal;HPM_P1;HPM_P2
2022/08/16 00:01:19;;;;;;;9.67;7.67;;;24.40;54.70;;;;;;5051992;28;20475;-44
2022/08/16 00:03:45;;;;;;;9.47;6.93;;;24.40;54.70;;;;;;5051496;28;20459;-43
2022/08/16 00:06:12;;;;;;;9.90;8.03;;;24.40;54.60;;;;;;5051485;28;20404;-43
2022/08/16 00:08:37;;;;;;;9.33;7.53;;;24.40;54.40;;;;;;5051874;28;20761;-42
2022/08/16 00:11:09;;;;;;;9.03;6.53;;;24.40;54.40;;;;;;5051620;28;20980;-43
2022/08/16 00:13:34;;;;;;;8.80;7.60;;;24.40;54.20;;;;;;5051692;28;20181;-43
2022/08/16 00:16:01;;;;;;;8.13;6.67;;;24.30;54.20;;;;;;5053855;28;20545;-43
2022/08/16 00:18:27;;;;;;;10.63;6.10;;;24.30;54.30;;;;;;5055409;28;20193;-44
2022/08/16 00:20:52;;;;;;;9.00;7.20;;;24.30;54.30;;;;;;5055444;28;20425;-43
2022/08/16 00:23:18;;;;;;;8.27;6.80;;;24.30;54.30;;;;;;5055267;28;20550;-42
2022/08/16 00:25:44;;;;;;;9.07;7.07;;;24.30;54.20;;;;;;5055077;28;20177;-43
2022/08/16 00:28:10;;;;;;;8.20;6.20;;;24.20;54.10;;;;;;5055165;28;20427;-44
2022/08/16 00:30:37;;;;;;;7.77;6.97;;;24.10;54.00;;;;;;5055264;28;20407;-43
2022/08/16 00:33:04;;;;;;;9.83;6.80;;;24.10;54.10;;;;;;5055336;28;20412;-44
2022/08/16 00:35:33;;;;;;;11.10;8.63;;;24.10;54.30;;;;;;5055170;28;21163;-44
2022/08/16 00:38:02;;;;;;;9.20;6.97;;;24.00;54.30;;;;;;5055192;28;20435;-44
2022/08/16 00:40:47;;;;;;;9.60;7.10;;;24.00;54.30;;;;;;5054972;28;20914;-43
2022/08/16 00:43:25;;;;;;;9.37;8.40;;;24.00;54.20;;;;;;5054838;28;20443;-42
2022/08/16 00:46:20;;;;;;;9.67;6.90;;;24.00;54.20;;;;;;5055071;28;20461;-43
2022/08/16 00:48:47;;;;;;;9.63;7.90;;;24.00;53.90;;;;;;5054775;28;20447;-43
2022/08/16 00:51:15;;;;;;;7.63;6.30;;;23.90;53.90;;;;;;5054906;28;20581;-44
2022/08/16 00:53:41;;;;;;;10.40;7.20;;;23.90;54.00;;;;;;5054938;28;20781;-43
2022/08/16 00:56:11;;;;;;;8.50;7.50;;;23.90;53.80;;;;;;5054619;28;20408;-42
2022/08/16 00:58:42;;;;;;;9.10;7.83;;;23.80;53.70;;;;;;5054856;28;20431;-43
2022/08/16 01:01:09;;;;;;;8.10;7.30;;;23.80;53.70;;;;;;5054658;28;20396;-44
2022/08/16 01:03:37;;;;;;;9.70;7.07;;;23.70;53.60;;;;;;5054632;28;20455;-42
2022/08/16 01:06:05;;;;;;;7.60;5.90;;;23.70;53.80;;;;;;5054669;28;20418;-43
2022/08/16 01:08:34;;;;;;;9.00;6.97;;;23.70;53.90;;;;;;5054639;28;20436;-44
2022/08/16 01:11:01;;;;;;;15.53;7.67;;;23.70;53.90;;;;;;5054461;28;20767;-43
2022/08/16 01:13:30;;;;;;;9.37;7.43;;;23.70;54.00;;;;;;5054470;28;20407;-43
2022/08/16 01:16:03;;;;;;;8.00;6.70;;;23.70;53.90;;;;;;5054147;28;20420;-42
2022/08/16 01:18:40;;;;;;;10.43;8.10;;;23.60;53.90;;;;;;5054423;28;20908;-41
2022/08/16 01:21:20;;;;;;;11.63;6.37;;;23.60;54.20;;;;;;5054296;28;20879;-43
2022/08/16 01:24:00;;;;;;;7.93;6.60;;;23.60;54.20;;;;;;5054145;28;20474;-44
2022/08/16 01:26:31;;;;;;;7.57;6.27;;;23.60;54.20;;;;;;5053902;28;20388;-43
2022/08/16 01:29:00;;;;;;;8.13;6.07;;;23.50;54.10;;;;;;5054405;28;20830;-42
2022/08/16 01:31:27;;;;;;;7.90;6.60;;;23.50;54.10;;;;;;5054152;28;20418;-43
2022/08/16 01:33:53;;;;;;;8.87;6.80;;;23.50;54.00;;;;;;5054377;28;20419;-43
2022/08/16 01:36:20;;;;;;;8.63;6.43;;;23.50;53.90;;;;;;5053850;28;20773;-42
2022/08/16 01:38:48;;;;;;;8.27;6.87;;;23.50;54.00;;;;;;5053837;28;20436;-42
2022/08/16 01:41:34;;;;;;;8.47;6.50;;;23.50;53.80;;;;;;5054232;28;20415;-44
2022/08/16 01:44:00;;;;;;;10.27;7.23;;;23.50;53.80;;;;;;5053490;28;20608;-42
2022/08/16 01:46:30;;;;;;;11.40;8.03;;;23.40;53.90;;;;;;5053890;28;20443;-42
2022/08/16 01:49:03;;;;;;;8.10;7.03;;;23.40;54.10;;;;;;5053672;28;20267;-44
2022/08/16 01:51:29;;;;;;;8.07;6.53;;;23.40;54.00;;;;;;5053733;28;20930;-44
2022/08/16 01:53:55;;;;;;;9.43;6.47;;;23.40;54.00;;;;;;5053650;28;20414;-42
2022/08/16 01:56:22;;;;;;;8.63;6.83;;;23.30;53.90;;;;;;5053326;28;20411;-44
2022/08/16 01:58:48;;;;;;;8.90;6.93;;;23.30;53.90;;;;;;5053518;28;21153;-43
2022/08/16 02:01:14;;;;;;;10.43;7.63;;;23.30;53.90;;;;;;5053822;28;20411;-43
2022/08/16 02:03:40;;;;;;;8.77;6.00;;;23.30;53.90;;;;;;5053780;28;20263;-43
2022/08/16 02:06:06;;;;;;;10.17;7.27;;;23.30;53.80;;;;;;5053183;28;20177;-43
2022/08/16 02:08:33;;;;;;;8.80;6.40;;;23.20;53.70;;;;;;5053559;28;20455;-44
2022/08/16 02:11:01;;;;;;;10.17;7.50;;;23.20;53.90;;;;;;5053305;28;20404;-44
2022/08/16 02:13:27;;;;;;;8.07;6.53;;;23.20;53.90;;;;;;5053477;28;20419;-42
2022/08/16 02:15:52;;;;;;;7.90;6.80;;;23.20;54.00;;;;;;5053156;28;20415;-43
2022/08/16 02:18:18;;;;;;;7.90;5.67;;;23.20;53.90;;;;;;5053205;28;20558;-43
2022/08/16 02:20:48;;;;;;;7.40;6.57;;;23.20;53.70;;;;;;5053213;28;20182;-42
2022/08/16 02:23:14;;;;;;;7.13;6.33;;;23.10;53.70;;;;;;5052936;28;20209;-43
2022/08/16 02:25:40;;;;;;;7.50;6.30;;;23.10;53.60;;;;;;5053050;28;20450;-44
2022/08/16 02:28:06;;;;;;;7.83;5.80;;;23.10;53.60;;;;;;5052963;28;20946;-43
2022/08/16 02:30:33;;;;;;;9.60;6.10;;;23.00;53.70;;;;;;5053019;28;20412;-44
2022/08/16 02:32:59;;;;;;;9.17;6.87;;;23.00;53.60;;;;;;5053038;28;20415;-43
2022/08/16 02:35:26;;;;;;;8.73;6.57;;;23.00;53.60;;;;;;5053116;28;20802;-44
2022/08/16 02:37:53;;;;;;;9.30;7.17;;;23.00;53.80;;;;;;5052322;28;20950;-43
2022/08/16 02:40:21;;;;;;;8.50;7.27;;;23.00;53.80;;;;;;5052257;28;20418;-43
2022/08/16 02:42:49;;;;;;;7.10;5.67;;;23.00;53.70;;;;;;5052951;28;20459;-43
2022/08/16 02:45:16;;;;;;;7.07;5.67;;;23.00;53.70;;;;;;5060298;22;20407;-43
2022/08/16 02:47:41;;;;;;;10.43;6.30;;;23.00;53.50;;;;;;5051991;28;20896;-42
2022/08/16 02:50:08;;;;;;;8.57;7.30;;;23.00;53.50;;;;;;5036095;28;20406;-42
2022/08/16 02:52:35;;;;;;;10.70;7.50;;;23.00;53.50;;;;;;5032531;28;20206;-40
2022/08/16 02:55:01;;;;;;;13.37;6.60;;;23.00;53.40;;;;;;5032720;28;20417;-41
2022/08/16 02:57:27;;;;;;;9.37;7.40;;;23.00;53.40;;;;;;5012745;28;20412;-41
2022/08/16 02:59:53;;;;;;;9.13;7.10;;;23.00;53.40;;;;;;5013113;28;20482;-42
2022/08/16 03:02:18;;;;;;;8.13;6.67;;;23.00;53.40;;;;;;5012763;28;20762;-41
2022/08/16 03:04:44;;;;;;;7.47;6.70;;;23.00;53.40;;;;;;5012839;28;20519;-43
2022/08/16 03:07:11;;;;;;;8.27;7.20;;;23.00;53.40;;;;;;5012563;28;20186;-43
2022/08/16 03:09:37;;;;;;;9.40;7.50;;;23.00;53.30;;;;;;5012834;28;20171;-43
2022/08/16 03:12:04;;;;;;;9.60;7.40;;;23.00;53.20;;;;;;5012679;28;20832;-41
2022/08/16 03:14:30;;;;;;;9.67;6.63;;;23.00;53.20;;;;;;5012642;28;20405;-41
2022/08/16 03:16:57;;;;;;;13.73;7.17;;;23.00;53.30;;;;;;5012355;28;20441;-43
2022/08/16 03:19:24;;;;;;;8.87;7.43;;;23.00;53.40;;;;;;5012651;28;20425;-41
2022/08/16 03:21:49;;;;;;;12.35;7.70;;;22.90;53.30;;;;;;5012734;28;20892;-42
2022/08/16 03:24:16;;;;;;;10.80;7.17;;;22.90;53.40;;;;;;5012545;28;20409;-41
2022/08/16 03:26:41;;;;;;;10.70;7.00;;;22.90;53.40;;;;;;5012185;28;20684;-42
2022/08/16 03:29:07;;;;;;;9.67;5.33;;;22.90;53.40;;;;;;5012441;28;20410;-41
2022/08/16 03:31:33;;;;;;;8.37;7.23;;;22.90;53.40;;;;;;4994907;28;20202;-41
2022/08/16 03:33:59;;;;;;;8.50;6.10;;;22.90;53.40;;;;;;4994784;28;20496;-41
2022/08/16 03:36:25;;;;;;;8.67;6.50;;;22.90;53.30;;;;;;5012040;28;20565;-43
2022/08/16 03:38:51;;;;;;;8.10;6.17;;;22.90;53.40;;;;;;5012400;28;20410;-42
2022/08/16 03:41:16;;;;;;;9.00;7.17;;;22.90;53.30;;;;;;5012293;28;20197;-40
2022/08/16 03:43:42;;;;;;;8.30;6.50;;;22.90;53.30;;;;;;5012363;28;20265;-42
2022/08/16 03:46:09;;;;;;;10.50;7.43;;;22.80;53.10;;;;;;5012001;28;20206;-43
2022/08/16 03:48:37;;;;;;;8.77;7.33;;;22.90;53.30;;;;;;4994648;28;20178;-42
2022/08/16 03:51:08;;;;;;;9.43;7.00;;;22.80;53.40;;;;;;5014607;28;20410;-42
2022/08/16 03:53:34;;;;;;;10.63;7.20;;;22.80;53.30;;;;;;5016274;28;20447;-42
2022/08/16 03:56:00;;;;;;;11.37;6.97;;;22.80;53.30;;;;;;5015886;28;20786;-42
2022/08/16 03:58:26;;;;;;;10.43;7.73;;;22.80;53.20;;;;;;5016156;28;20416;-40
2022/08/16 04:00:54;;;;;;;9.53;6.40;;;22.70;53.20;;;;;;5016206;28;20409;-42
2022/08/16 04:03:20;;;;;;;8.60;7.10;;;22.70;53.40;;;;;;5016329;28;20289;-42
2022/08/16 04:05:49;;;;;;;7.03;6.20;;;22.60;53.30;;;;;;5016028;28;20519;-41
2022/08/16 04:08:18;;;;;;;8.30;6.60;;;22.60;53.30;;;;;;5016328;28;20941;-41
2022/08/16 04:10:44;;;;;;;9.83;7.07;;;22.60;53.30;;;;;;5016193;28;20463;-42
2022/08/16 04:13:10;;;;;;;10.93;7.83;;;22.60;53.40;;;;;;4998342;28;20428;-42
2022/08/16 04:15:37;;;;;;;9.83;7.13;;;22.60;53.30;;;;;;5015744;28;20452;-41
2022/08/16 04:18:03;;;;;;;7.87;6.97;;;22.60;53.20;;;;;;5015833;28;20417;-41
2022/08/16 04:20:30;;;;;;;8.60;7.63;;;22.60;53.20;;;;;;5015771;28;20406;-41
2022/08/16 04:22:56;;;;;;;8.57;6.93;;;22.60;53.30;;;;;;5015678;28;20457;-42
2022/08/16 04:25:22;;;;;;;11.00;7.67;;;22.60;53.20;;;;;;5015498;28;20509;-42
2022/08/16 04:27:49;;;;;;;9.10;7.50;;;22.60;53.20;;;;;;5015496;28;20412;-41
2022/08/16 04:30:17;;;;;;;8.33;6.70;;;22.70;53.20;;;;;;5015672;28;20412;-42
2022/08/16 04:32:44;;;;;;;13.30;7.23;;;22.70;53.20;;;;;;5015620;28;20424;-42
2022/08/16 04:35:12;;;;;;;10.53;7.23;;;22.70;53.40;;;;;;5015650;28;20402;-43
2022/08/16 04:37:38;;;;;;;10.73;7.97;;;22.80;53.30;;;;;;5015199;28;20405;-41
2022/08/16 04:40:06;;;;;;;8.93;6.77;;;22.70;53.30;;;;;;5015449;28;20413;-41
2022/08/16 04:42:33;;;;;;;10.10;7.77;;;22.70;53.30;;;;;;5015597;28;20202;-41
2022/08/16 04:44:59;;;;;;;9.80;7.93;;;22.80;53.40;;;;;;5015367;28;20804;-42
2022/08/16 04:47:28;;;;;;;10.40;7.40;;;22.80;53.40;;;;;;5014860;28;20532;-42
2022/08/16 04:49:54;;;;;;;9.60;8.10;;;22.90;53.30;;;;;;5015314;28;20250;-42
2022/08/16 04:52:21;;;;;;;9.70;6.80;;;22.90;53.20;;;;;;5015182;28;20417;-41
2022/08/16 04:54:46;;;;;;;10.07;7.47;;;23.00;53.00;;;;;;5015155;28;20450;-42
2022/08/16 04:57:12;;;;;;;9.23;6.90;;;23.00;53.00;;;;;;5014977;28;20432;-41
2022/08/16 04:59:38;;;;;;;8.73;7.83;;;23.00;53.10;;;;;;5015350;28;20629;-41
2022/08/16 05:02:04;;;;;;;9.60;7.97;;;23.00;53.00;;;;;;5013941;28;20669;-41
2022/08/16 05:04:30;;;;;;;7.83;6.40;;;23.10;53.00;;;;;;5014962;28;20171;-41
2022/08/16 05:06:55;;;;;;;7.57;6.77;;;23.10;53.00;;;;;;5014663;28;20341;-42
2022/08/16 05:09:21;;;;;;;10.00;6.97;;;23.20;52.90;;;;;;4997303;28;20493;-43
2022/08/16 05:11:47;;;;;;;8.73;6.10;;;23.20;53.00;;;;;;5014916;28;20175;-42
2022/08/16 05:14:13;;;;;;;10.17;7.63;;;23.20;53.00;;;;;;5015087;28;20167;-42
2022/08/16 05:16:39;;;;;;;8.30;6.70;;;23.20;52.90;;;;;;5014738;28;20785;-41
2022/08/16 05:19:05;;;;;;;8.33;7.07;;;23.30;52.80;;;;;;5014667;28;20185;-41
2022/08/16 05:21:32;;;;;;;8.20;7.20;;;23.40;52.90;;;;;;5014520;28;20414;-42
2022/08/16 05:23:59;;;;;;;8.73;7.03;;;23.40;52.90;;;;;;5014734;28;20461;-40
2022/08/16 05:26:29;;;;;;;9.97;7.73;;;23.50;52.80;;;;;;5014625;28;20447;-42
2022/08/16 05:28:57;;;;;;;9.67;7.77;;;23.60;52.80;;;;;;5014640;28;21001;-42
2022/08/16 05:31:24;;;;;;;9.53;7.23;;;23.60;52.60;;;;;;5014714;28;20765;-41
2022/08/16 05:33:50;;;;;;;13.50;6.60;;;23.60;52.70;;;;;;5014339;28;20409;-41
2022/08/16 05:36:16;;;;;;;12.93;7.70;;;23.70;52.80;;;;;;5014359;28;20759;-42
2022/08/16 05:38:42;;;;;;;9.90;7.40;;;23.70;52.80;;;;;;5014367;28;20508;-42
2022/08/16 05:41:08;;;;;;;10.60;8.47;;;23.70;52.70;;;;;;4996738;28;20186;-42
2022/08/16 05:43:33;;;;;;;9.63;7.10;;;23.70;52.90;;;;;;5014157;28;20207;-42
2022/08/16 05:45:59;;;;;;;11.33;9.00;;;23.70;52.90;;;;;;5013929;28;20445;-42
2022/08/16 05:48:25;;;;;;;9.50;7.70;;;23.70;52.80;;;;;;5014174;28;20515;-41
2022/08/16 05:50:51;;;;;;;7.83;6.77;;;23.70;52.80;;;;;;5014067;28;20437;-42
2022/08/16 05:53:17;;;;;;;9.53;6.60;;;23.80;52.80;;;;;;5014037;28;20191;-42
2022/08/16 05:55:43;;;;;;;9.10;7.20;;;23.80;52.80;;;;;;5013735;28;20436;-41
2022/08/16 05:58:09;;;;;;;8.83;7.13;;;23.90;52.60;;;;;;5014007;28;20236;-41
2022/08/16 06:00:35;;;;;;;14.53;8.30;;;23.90;52.70;;;;;;5013919;28;20695;-42
2022/08/16 06:03:01;;;;;;;9.03;7.23;;;24.00;52.40;;;;;;5013676;28;20453;-42
2022/08/16 06:05:27;;;;;;;9.60;7.23;;;24.00;52.20;;;;;;5013636;28;20456;-42
2022/08/16 06:07:53;;;;;;;9.10;7.37;;;24.10;52.10;;;;;;5013653;28;20312;-42
2022/08/16 06:10:19;;;;;;;12.60;7.43;;;24.10;52.30;;;;;;5013690;28;20420;-43
2022/08/16 06:12:45;;;;;;;11.20;7.40;;;24.30;52.60;;;;;;5013502;28;20242;-42
2022/08/16 06:15:15;;;;;;;10.10;7.73;;;24.40;52.60;;;;;;5013596;28;20940;-43
2022/08/16 06:17:42;;;;;;;6.87;6.17;;;24.50;52.80;;;;;;5013330;28;20265;-42
2022/08/16 06:20:10;;;;;;;9.40;6.27;;;24.60;52.10;;;;;;5013432;28;20906;-42
2022/08/16 06:22:37;;;;;;;8.40;6.87;;;24.70;51.80;;;;;;5013411;28;20461;-40
2022/08/16 06:25:04;;;;;;;11.40;6.10;;;24.70;51.90;;;;;;5013534;28;20425;-41
2022/08/16 06:27:30;;;;;;;7.77;6.60;;;24.80;52.10;;;;;;5013271;28;20520;-42
2022/08/16 06:29:55;;;;;;;8.20;6.40;;;24.90;52.00;;;;;;5013376;28;20489;-43
2022/08/16 06:32:21;;;;;;;7.53;6.10;;;25.00;51.70;;;;;;4995674;28;20179;-42
2022/08/16 06:34:47;;;;;;;8.77;7.80;;;25.10;51.70;;;;;;5013391;28;20206;-42
2022/08/16 06:37:13;;;;;;;7.27;6.30;;;25.20;51.50;;;;;;5013012;28;20430;-43
2022/08/16 06:39:39;;;;;;;8.27;6.90;;;25.20;51.00;;;;;;5013246;28;20489;-41
2022/08/16 06:42:05;;;;;;;8.50;7.30;;;25.30;51.00;;;;;;5013170;28;20589;-42
2022/08/16 06:44:30;;;;;;;7.27;6.53;;;25.40;50.80;;;;;;5013191;28;20618;-41
2022/08/16 06:46:56;;;;;;;7.60;6.10;;;25.40;50.60;;;;;;5012682;28;20445;-42
2022/08/16 06:49:22;;;;;;;8.77;6.40;;;25.50;50.70;;;;;;5013182;28;20221;-42
2022/08/16 06:51:48;;;;;;;9.17;5.93;;;25.60;50.40;;;;;;5013062;28;20222;-41
2022/08/16 06:54:15;;;;;;;8.73;6.50;;;25.70;50.50;;;;;;5013195;28;20492;-41
2022/08/16 06:56:41;;;;;;;6.90;5.77;;;25.80;50.40;;;;;;5012925;28;20421;-42
2022/08/16 06:59:08;;;;;;;6.70;5.20;;;25.90;50.40;;;;;;5012941;28;20479;-41
2022/08/16 07:01:33;;;;;;;15.03;6.97;;;25.90;50.30;;;;;;4995158;28;20522;-42
2022/08/16 07:03:59;;;;;;;8.80;6.27;;;26.00;49.40;;;;;;5012781;28;20491;-40
2022/08/16 07:06:25;;;;;;;12.70;6.10;;;26.00;48.80;;;;;;5012507;28;20194;-42
2022/08/16 07:08:51;;;;;;;9.70;6.53;;;26.10;49.20;;;;;;5012785;28;20166;-42
2022/08/16 07:11:19;;;;;;;8.67;6.03;;;26.20;49.20;;;;;;5012657;28;20765;-42
2022/08/16 07:13:47;;;;;;;8.93;6.23;;;26.20;48.80;;;;;;5012704;28;20551;-42
2022/08/16 07:16:15;;;;;;;7.57;5.03;;;26.40;48.40;;;;;;5012209;28;20944;-42
2022/08/16 07:18:44;;;;;;;6.50;4.77;;;26.40;47.80;;;;;;5012520;28;20420;-42
2022/08/16 07:21:12;;;;;;;5.40;4.87;;;26.50;47.20;;;;;;5012759;28;20439;-43
2022/08/16 07:23:43;;;;;;;4.90;4.43;;;26.50;47.60;;;;;;4994820;28;20457;-41
2022/08/16 07:26:12;;;;;;;5.57;4.77;;;26.70;48.30;;;;;;5011693;28;20933;-42
2022/08/16 07:28:38;;;;;;;6.70;5.53;;;26.80;48.50;;;;;;5012425;28;20898;-41
2022/08/16 07:31:04;;;;;;;5.40;4.70;;;26.90;48.40;;;;;;5012345;28;20416;-41
2022/08/16 07:33:34;;;;;;;7.93;4.40;;;27.10;47.80;;;;;;5012387;28;20171;-41
2022/08/16 07:36:00;;;;;;;5.93;5.33;;;27.10;47.30;;;;;;5012167;28;20434;-41
2022/08/16 07:38:26;;;;;;;5.53;4.77;;;27.20;47.10;;;;;;5012538;28;20501;-42
2022/08/16 07:40:56;;;;;;;6.20;5.57;;;27.30;46.80;;;;;;5012300;28;20460;-40
2022/08/16 07:43:23;;;;;;;6.00;4.20;;;27.30;45.70;;;;;;5012103;28;20464;-40
2022/08/16 07:45:49;;;;;;;6.07;4.50;;;27.40;45.60;;;;;;5011826;28;20946;-42
2022/08/16 07:48:15;;;;;;;8.77;4.47;;;27.50;45.50;;;;;;5012190;28;20406;-43
2022/08/16 07:50:42;;;;;;;4.60;3.67;;;27.50;45.60;;;;;;5012250;28;20412;-43
2022/08/16 07:53:08;;;;;;;6.53;3.93;;;27.60;46.40;;;;;;5012119;28;20401;-42
2022/08/16 07:55:35;;;;;;;5.40;4.20;;;27.80;44.70;;;;;;5011821;28;20433;-42
2022/08/16 07:58:02;;;;;;;5.40;3.77;;;27.90;43.30;;;;;;5012054;28;20413;-41
2022/08/16 08:00:28;;;;;;;5.37;3.80;;;27.90;42.30;;;;;;5012268;28;20773;-43
2022/08/16 08:02:57;;;;;;;4.60;3.73;;;28.00;42.60;;;;;;5012008;28;20453;-42
2022/08/16 08:05:24;;;;;;;4.73;4.00;;;28.10;42.10;;;;;;5011936;28;20433;-42
2022/08/16 08:07:52;;;;;;;4.93;3.90;;;28.20;43.00;;;;;;5012158;28;20441;-42
2022/08/16 08:10:19;;;;;;;4.07;3.67;;;28.30;43.70;;;;;;5011871;28;20980;-43
2022/08/16 08:12:48;;;;;;;5.00;3.87;;;28.40;42.70;;;;;;5011968;28;20782;-41
2022/08/16 08:15:14;;;;;;;2.93;2.63;;;28.50;42.20;;;;;;5011826;28;20905;-43
2022/08/16 08:17:41;;;;;;;6.13;2.97;;;28.60;42.50;;;;;;5011769;28;20420;-42
2022/08/16 08:20:09;;;;;;;3.97;3.50;;;28.60;42.30;;;;;;5011920;28;20416;-42
2022/08/16 08:22:35;;;;;;;3.30;2.90;;;28.80;41.80;;;;;;5012115;28;20944;-41
2022/08/16 08:25:02;;;;;;;5.87;4.33;;;28.80;41.30;;;;;;5012101;28;20405;-42
2022/08/16 08:27:28;;;;;;;4.90;4.10;;;28.90;40.00;;;;;;5011700;28;20405;-42
2022/08/16 08:29:54;;;;;;;12.03;4.00;;;29.00;40.00;;;;;;5012000;28;20402;-42
2022/08/16 08:32:20;;;;;;;4.10;3.20;;;29.10;40.50;;;;;;5011895;28;20191;-43
2022/08/16 08:34:47;;;;;;;4.70;3.60;;;29.10;39.90;;;;;;5012021;28;20184;-41
2022/08/16 08:37:13;;;;;;;4.07;3.20;;;29.20;41.50;;;;;;5014139;28;20222;-42
2022/08/16 08:39:39;;;;;;;6.50;3.77;;;29.30;41.90;;;;;;5015436;28;20822;-43
2022/08/16 08:42:06;;;;;;;3.77;3.37;;;29.40;41.90;;;;;;5015659;28;20453;-43
2022/08/16 08:44:33;;;;;;;6.40;4.03;;;29.50;41.50;;;;;;5015512;28;20627;-42
2022/08/16 08:47:01;;;;;;;4.20;3.43;;;29.60;41.40;;;;;;5014960;28;20453;-42
2022/08/16 08:49:28;;;;;;;4.60;3.70;;;29.60;41.30;;;;;;5015486;28;20441;-42
2022/08/16 08:51:54;;;;;;;8.47;3.90;;;29.70;41.60;;;;;;5015184;28;20406;-42
2022/08/16 08:54:20;;;;;;;5.00;3.43;;;29.80;41.50;;;;;;5015271;28;20634;-41
2022/08/16 08:56:46;;;;;;;3.50;2.97;;;29.80;40.60;;;;;;5015034;28;20512;-43
2022/08/16 08:59:12;;;;;;;5.93;3.50;;;29.90;39.90;;;;;;5015283;28;20997;-43
2022/08/16 09:01:40;;;;;;;4.40;3.30;;;29.90;40.00;;;;;;5015040;28;20205;-42
2022/08/16 09:04:06;;;;;;;3.57;3.10;;;29.90;40.10;;;;;;5014939;28;20820;-42
2022/08/16 09:06:34;;;;;;;3.63;3.23;;;30.00;40.70;;;;;;5014687;28;20477;-43
2022/08/16 09:08:59;;;;;;;5.30;3.20;;;30.10;40.10;;;;;;5015113;28;20406;-43
2022/08/16 09:11:26;;;;;;;4.50;3.60;;;30.10;39.40;;;;;;5014806;28;20880;-42
2022/08/16 09:13:52;;;;;;;4.10;3.53;;;30.20;40.40;;;;;;5015020;28;20467;-42
2022/08/16 09:16:19;;;;;;;4.87;3.60;;;30.20;37.60;;;;;;5014447;28;20457;-42
2022/08/16 09:18:45;;;;;;;5.50;2.90;;;30.20;39.10;;;;;;5014719;28;20621;-42
2022/08/16 09:21:13;;;;;;;4.83;3.57;;;30.40;38.10;;;;;;5014615;28;20415;-41
2022/08/16 09:23:39;;;;;;;4.70;2.90;;;30.40;37.60;;;;;;5014781;28;20457;-43
2022/08/16 09:26:09;;;;;;;4.23;3.00;;;30.40;36.00;;;;;;5014297;28;20428;-42
2022/08/16 09:28:37;;;;;;;6.57;3.93;;;30.50;34.80;;;;;;5014780;28;20401;-44
2022/08/16 09:31:04;;;;;;;3.80;3.10;;;30.50;35.10;;;;;;5014455;28;20402;-42
2022/08/16 09:33:30;;;;;;;3.97;3.37;;;30.50;35.60;;;;;;5014440;28;20420;-44
2022/08/16 09:35:55;;;;;;;3.80;3.27;;;30.60;36.10;;;;;;5014074;28;20439;-44
2022/08/16 09:38:23;;;;;;;3.03;2.57;;;30.60;36.60;;;;;;5014615;28;20178;-44
2022/08/16 09:40:49;;;;;;;5.40;3.07;;;30.70;35.30;;;;;;5014307;28;20238;-42
2022/08/16 09:43:18;;;;;;;3.77;3.00;;;30.80;34.80;;;;;;5014501;28;20460;-42
2022/08/16 09:45:45;;;;;;;4.00;3.00;;;30.90;34.20;;;;;;5013827;28;20447;-42
2022/08/16 09:48:13;;;;;;;4.50;3.03;;;31.00;35.70;;;;;;5013535;28;20412;-42
2022/08/16 09:50:39;;;;;;;7.17;3.40;;;31.10;36.00;;;;;;5014073;28;20462;-42
2022/08/16 09:53:15;;;;;;;5.30;3.27;;;31.20;36.50;;;;;;5014031;28;20416;-42
2022/08/16 09:55:42;;;;;;;3.93;2.70;;;31.20;35.70;;;;;;5014056;28;20471;-43
2022/08/16 09:58:08;;;;;;;3.20;2.47;;;31.30;35.90;;;;;;5013938;28;20463;-42
2022/08/16 10:00:34;;;;;;;3.90;3.00;;;31.30;33.30;;;;;;5013840;28;20417;-42
2022/08/16 10:03:00;;;;;;;6.60;3.03;;;31.40;34.70;;;;;;5013792;28;20206;-44
2022/08/16 10:05:26;;;;;;;4.77;3.53;;;31.40;34.50;;;;;;5013957;28;20193;-45
2022/08/16 10:07:51;;;;;;;3.30;2.63;;;31.50;35.20;;;;;;5013589;28;20789;-43
2022/08/16 10:10:22;;;;;;;4.97;3.33;;;31.60;34.80;;;;;;5013719;28;20270;-43
2022/08/16 10:15:34;;;;;;;4.00;2.90;;;31.70;31.40;;;;;;5013690;28;20928;-45
2022/08/16 10:18:06;;;;;;;6.00;3.47;;;31.80;32.40;;;;;;5013713;28;20472;-43
2022/08/16 10:20:38;;;;;;;5.03;3.13;;;31.90;32.40;;;;;;5013756;28;20413;-43
2022/08/16 10:23:06;;;;;;;5.80;4.17;;;31.90;32.90;;;;;;5013535;28;20874;-43
2022/08/16 10:25:34;;;;;;;3.60;2.53;;;31.90;30.80;;;;;;5013179;28;20425;-43
2022/08/16 10:28:00;;;;;;;5.67;2.87;;;31.90;32.40;;;;;;5013535;28;21213;-43
2022/08/16 10:30:26;;;;;;;3.27;2.37;;;32.00;32.60;;;;;;5013419;28;20417;-43
2022/08/16 10:32:51;;;;;;;3.70;2.80;;;32.10;31.30;;;;;;5013368;28;20175;-43
2022/08/16 10:35:17;;;;;;;4.40;3.30;;;32.00;32.00;;;;;;5013413;28;20410;-43
2022/08/16 10:37:44;;;;;;;3.87;3.47;;;32.00;32.30;;;;;;5013086;28;20581;-43
2022/08/16 10:40:10;;;;;;;3.57;3.00;;;32.00;33.10;;;;;;5013132;28;20463;-42
2022/08/16 10:42:36;;;;;;;5.13;2.83;;;31.90;30.40;;;;;;5013028;28;20456;-42
2022/08/16 10:45:03;;;;;;;4.33;3.10;;;31.80;31.60;;;;;;5013173;28;20493;-41
2022/08/16 10:47:29;;;;;;;4.80;2.80;;;31.70;32.20;;;;;;5012705;28;20190;-43
2022/08/16 10:49:56;;;;;;;3.97;3.30;;;31.60;32.80;;;;;;5013112;28;20468;-44
2022/08/16 10:52:22;;;;;;;3.60;2.60;;;31.40;33.20;;;;;;5012963;28;20206;-42
2022/08/16 10:54:48;;;;;;;6.93;2.90;;;31.30;33.30;;;;;;5012920;28;20429;-40
2022/08/16 10:57:14;;;;;;;3.40;3.00;;;31.20;33.70;;;;;;5012802;28;20256;-42
2022/08/16 10:59:40;;;;;;;4.30;3.07;;;31.20;33.90;;;;;;5012049;28;20417;-42
2022/08/16 11:02:09;;;;;;;3.00;2.40;;;31.20;34.00;;;;;;5012701;28;20496;-42
2022/08/16 11:04:35;;;;;;;10.03;2.90;;;31.10;34.00;;;;;;5012761;28;20413;-44
2022/08/16 11:07:03;;;;;;;4.33;3.70;;;31.10;33.90;;;;;;5012458;28;20469;-44
2022/08/16 11:09:29;;;;;;;3.80;2.80;;;31.20;33.60;;;;;;5012854;28;20405;-41
2022/08/16 11:11:55;;;;;;;5.33;2.70;;;31.40;33.40;;;;;;5012671;28;20489;-40
2022/08/16 11:14:23;;;;;;;2.97;2.47;;;31.50;32.40;;;;;;5012630;28;20489;-42
2022/08/16 11:16:49;;;;;;;4.10;3.10;;;31.60;32.10;;;;;;5012465;28;20195;-42
2022/08/16 11:19:15;;;;;;;3.10;2.63;;;31.60;32.90;;;;;;5012820;28;20493;-41
2022/08/16 11:21:42;;;;;;;3.70;3.00;;;31.60;32.20;;;;;;5012491;28;20440;-43
2022/08/16 11:24:08;;;;;;;5.23;3.03;;;31.60;32.70;;;;;;5012568;28;20515;-43
2022/08/16 11:26:34;;;;;;;5.07;3.43;;;31.60;32.90;;;;;;5012453;28;20426;-42
2022/08/16 11:29:00;;;;;;;3.67;2.47;;;31.70;32.80;;;;;;5012907;28;20982;-43
2022/08/16 11:31:26;;;;;;;3.80;3.13;;;31.80;32.70;;;;;;5012826;28;20410;-42
2022/08/16 11:33:52;;;;;;;3.33;2.77;;;32.00;33.00;;;;;;5012467;28;20928;-41
2022/08/16 11:36:18;;;;;;;6.60;3.00;;;32.10;32.20;;;;;;5012183;28;20194;-43
2022/08/16 11:38:45;;;;;;;4.30;2.50;;;32.30;31.30;;;;;;5012436;28;20186;-43
2022/08/16 11:41:12;;;;;;;3.93;2.90;;;32.40;30.10;;;;;;5012178;28;20825;-41
2022/08/16 11:43:40;;;;;;;3.33;2.93;;;32.50;30.40;;;;;;5012123;28;20453;-43
2022/08/16 11:46:12;;;;;;;4.57;3.00;;;32.60;31.00;;;;;;5011851;28;20484;-41
2022/08/16 11:48:37;;;;;;;6.13;4.60;;;32.70;30.90;;;;;;5012532;28;20398;-43
2022/08/16 11:51:04;;;;;;;3.77;2.67;;;32.90;31.20;;;;;;5012109;28;20739;-42
2022/08/16 11:53:31;;;;;;;4.23;3.03;;;33.00;31.30;;;;;;5012391;28;20500;-43
2022/08/16 11:55:59;;;;;;;3.40;2.40;;;33.00;28.70;;;;;;5011786;28;20516;-42
2022/08/16 11:58:27;;;;;;;4.17;3.23;;;33.20;30.20;;;;;;5012422;28;20410;-42
2022/08/16 12:00:56;;;;;;;4.33;3.13;;;33.40;30.10;;;;;;5012189;28;20422;-43
2022/08/16 12:03:23;;;;;;;5.73;2.87;;;33.50;29.30;;;;;;5012287;28;20449;-42
2022/08/16 12:05:49;;;;;;;3.57;2.50;;;33.60;29.00;;;;;;5011699;28;20429;-41
2022/08/16 12:08:15;;;;;;;4.80;3.20;;;33.60;28.90;;;;;;5012310;28;20463;-43
2022/08/16 12:10:41;;;;;;;3.20;2.50;;;33.60;27.40;;;;;;5012036;28;20183;-42
2022/08/16 12:13:08;;;;;;;3.83;2.73;;;33.60;27.00;;;;;;5015242;28;20417;-43
2022/08/16 12:15:35;;;;;;;3.33;2.73;;;33.70;27.70;;;;;;5015608;28;20967;-43
2022/08/16 12:18:01;;;;;;;5.13;3.23;;;33.80;28.50;;;;;;5015810;28;20495;-42
2022/08/16 12:20:31;;;;;;;3.77;3.10;;;33.90;28.60;;;;;;5015965;28;20422;-42
2022/08/16 12:22:57;;;;;;;4.00;3.07;;;34.00;28.90;;;;;;5015714;28;20555;-42
2022/08/16 12:25:26;;;;;;;3.80;2.93;;;34.10;28.60;;;;;;5015875;28;20468;-42
2022/08/16 12:27:52;;;;;;;3.83;3.23;;;34.20;28.20;;;;;;5015606;28;20177;-42
2022/08/16 12:30:23;;;;;;;5.10;3.03;;;34.30;28.90;;;;;;5015613;28;20417;-43
2022/08/16 12:32:49;;;;;;;5.00;3.27;;;34.40;29.00;;;;;;5015483;28;20393;-43
2022/08/16 12:35:19;;;;;;;4.37;2.97;;;34.50;28.90;;;;;;5015461;28;20409;-43
2022/08/16 12:37:47;;;;;;;4.63;2.77;;;34.60;28.60;;;;;;5015237;28;20265;-41
2022/08/16 12:40:16;;;;;;;5.13;3.10;;;34.60;28.50;;;;;;5015385;28;20418;-43
2022/08/16 12:42:42;;;;;;;4.00;2.80;;;34.60;27.30;;;;;;5015385;28;20445;-42
2022/08/16 12:45:11;;;;;;;3.20;2.80;;;34.60;27.70;;;;;;5015153;28;20401;-43
2022/08/16 12:50:22;;;;;;;4.30;2.57;;;34.70;27.20;;;;;;5015518;28;20399;-42